Mijn Webcam Meer informatie Mijn Webcam


webcam facing north-east Meer informatie webcam facing north-east


Regen radar Meer informatie rain snow radar


Bezoek onze andere website:

Template documentation
and downloads

And another site


CBI



METAR rapporten vliegvelden

   
EHGG - Groningen/Eelde
Gewijzigd: 18-08-2017 06:25
Gedeeltelijk bewolkt  
Gedeeltelijk bewolkt  
   Wind: ZZW 4,1 m/s
Wind: ZZW 4,1 m/s
Temperatuur: 15°C
Dauwpunt: 15°C
Vochtigheid: 100%
Barometer: 1011 hPa
Bewolking: Gedeeltelijk bewolkt
Zicht: More then 10 km
Bewolking: Gedeeltelijk bewolkt
EHGG 180425Z AUTO 20008KT 9999 NSC 15/15 Q1011 NOSIG
EHMA - Schiermonnikoog
Gewijzigd: 18-08-2017 06:25
Bewolking  
Bewolking  
   Wind: ZZW 10,3 m/s
Wind: ZZW 10,3 m/s
Temperatuur: 18°C
Dauwpunt: 16°C
Vochtigheid: 88%
Barometer: 1010 hPa
Bewolking: Bewolking
Zicht: 7 km
Bewolking: Licht bewolkt 152,4 m,
Grotendeels bewolkt 304,8 m,
Bewolking 365,8 m
EHMA 180425Z AUTO 21020KT 140V260 7000 FEW005 BKN010 OVC012 18/16 Q1010
EHMG - Terschelling
Gewijzigd: 18-08-2017 06:25
Grotendeels bewolkt  
Grotendeels bewolkt  
   Wind: ZW 13,4 m/s
Wind: ZW 13,4 m/s
Temperatuur: 19°C
Dauwpunt: 16°C
Vochtigheid: 83%
Barometer: 1008 hPa
Bewolking: Grotendeels bewolkt
Zicht: More then 10 km
Bewolking: Licht bewolkt 243,8 m,
Gedeeltelijk bewolkt 304,8 m,
Grotendeels bewolkt 518,2 m
EHMG 180425Z AUTO 22026KT 9999 FEW008 SCT010 BKN017 19/16 Q1008
EHVL - Vlieland
Gewijzigd: 18-08-2017 06:25
Grotendeels bewolkt  
Grotendeels bewolkt  
   Wind: ZW 9,3 m/s
Wind: ZW 9,3 m/s
Temperatuur: 18°C
Dauwpunt: 16°C
Vochtigheid: 88%
Barometer: 1009 hPa
Bewolking: Grotendeels bewolkt
Zicht: More then 10 km
Bewolking: Licht bewolkt 944,9 m,
Grotendeels bewolkt 5791,2 m
EHVL 180425Z AUTO 22018KT 9999 FEW031 BKN190 18/16 Q1009 BLU
ETWM - Meppen, Germany
Gewijzigd: 18-08-2017 06:20
Shallow, Mist, Nevel, Grotendeels bewolkt  
Shallow, Mist, Nevel, Grotendeels bewolkt  
   Wind: ZZW 1 m/s
Wind: ZZW 1 m/s
Temperatuur: 15°C
Dauwpunt: 15°C
Vochtigheid: 100%
Barometer: 1012 hPa
Bewolking: Grotendeels bewolkt
Zicht: 5 km
Bewolking: Licht bewolkt 91,4 m,
Gedeeltelijk bewolkt 6096 m,
Grotendeels bewolkt 6705,6 m
ETWM 180420Z 20002KT 5000 MIFG BR FEW003 SCT200 BKN220 15/15 Q1012 WHT
 

Script ontwikkeld door  Saratoga-weather.org Aangepast voor de template door  Weerstation Leuven

U vindt ons ook hier:

Het Weer Aktueel

UK Metoffice

European Weather Network

WeatherCloud

Weather Underground

Benelux Weer Netwerk

AWEKAS

WeatherlinkIP

HAMweather, WeatherForYou, PWS Weather

Apparatuur in gebruik:

Weerstation
Davis VP2 Plus

Weerprogramma
Cumulus

Weercomputer
ASUS Eee Box B202

Webleverancier
Antagonist

Davis VP2 Plus

Cumulus

ASUS Eee Box B202

Antagonist